createdAt,value
2023-04-13T00:01:15.871Z,3.63
2023-04-13T00:03:43.088Z,2.33
2023-04-13T00:06:11.236Z,2.47
2023-04-13T00:08:38.818Z,2.80
2023-04-13T00:11:07.731Z,3.03
2023-04-13T00:13:40.972Z,3.00
2023-04-13T00:16:10.952Z,3.57
2023-04-13T00:18:38.222Z,3.47
2023-04-13T00:21:05.961Z,3.50
2023-04-13T00:23:35.990Z,2.83
2023-04-13T00:26:03.132Z,4.07
2023-04-13T00:28:30.339Z,4.57
2023-04-13T00:30:57.662Z,4.80
2023-04-13T00:33:27.055Z,4.67
2023-04-13T00:35:54.105Z,4.73
2023-04-13T00:38:23.987Z,6.17
2023-04-13T00:40:51.063Z,4.40
2023-04-13T00:43:18.181Z,5.17
2023-04-13T00:45:45.388Z,4.03
2023-04-13T00:48:13.519Z,5.53
2023-04-13T00:50:42.445Z,4.27
2023-04-13T00:53:13.250Z,6.47
2023-04-13T00:55:42.700Z,8.13
2023-04-13T00:58:10.576Z,8.13
2023-04-13T01:00:42.730Z,8.70
2023-04-13T01:03:10.254Z,10.00
2023-04-13T01:05:54.049Z,9.97
2023-04-13T01:09:08.839Z,8.83
2023-04-13T01:12:08.266Z,12.03
2023-04-13T01:14:49.233Z,12.47
2023-04-13T01:17:23.940Z,11.33
2023-04-13T01:20:11.995Z,12.17
2023-04-13T01:23:01.412Z,12.27
2023-04-13T01:25:38.254Z,13.67
2023-04-13T01:28:13.538Z,15.60
2023-04-13T01:30:42.468Z,16.20
2023-04-13T01:33:11.771Z,16.63
2023-04-13T01:35:39.743Z,13.70
2023-04-13T01:38:08.659Z,13.97
2023-04-13T01:40:40.924Z,14.17
2023-04-13T01:43:08.766Z,12.13
2023-04-13T01:45:56.876Z,11.53
2023-04-13T01:48:49.399Z,10.60
2023-04-13T01:51:32.272Z,9.13
2023-04-13T01:54:17.864Z,8.03
2023-04-13T01:56:45.576Z,8.60
2023-04-13T01:59:13.162Z,9.03
2023-04-13T02:01:41.048Z,9.63
2023-04-13T02:04:08.379Z,10.40
2023-04-13T02:06:40.899Z,10.37
2023-04-13T02:09:08.289Z,10.30
2023-04-13T02:11:36.653Z,10.77
2023-04-13T02:14:04.823Z,9.60
2023-04-13T02:16:32.185Z,10.70
2023-04-13T02:19:00.065Z,10.97
2023-04-13T02:21:27.288Z,10.77
2023-04-13T02:23:54.490Z,10.77
2023-04-13T02:26:21.552Z,13.13
2023-04-13T02:28:51.254Z,10.83
2023-04-13T02:31:20.030Z,10.73
2023-04-13T02:33:47.675Z,10.70
2023-04-13T02:36:17.539Z,9.87
2023-04-13T02:38:45.314Z,10.63
2023-04-13T02:41:12.566Z,10.80
2023-04-13T02:43:39.707Z,9.30
2023-04-13T02:46:07.222Z,8.83
2023-04-13T02:48:34.316Z,9.63
2023-04-13T02:51:02.334Z,8.97
2023-04-13T02:53:29.450Z,8.43
2023-04-13T02:55:56.651Z,9.50
2023-04-13T02:58:24.030Z,9.57
2023-04-13T03:00:51.353Z,10.27
2023-04-13T03:03:19.081Z,10.50
2023-04-13T03:05:47.179Z,10.03
2023-04-13T03:08:14.447Z,9.77
2023-04-13T03:10:41.549Z,9.40
2023-04-13T03:13:08.761Z,9.93
2023-04-13T03:15:37.334Z,10.70
2023-04-13T03:18:04.554Z,10.87
2023-04-13T03:20:31.830Z,10.87
2023-04-13T03:22:59.909Z,10.73
2023-04-13T03:25:28.326Z,10.00
2023-04-13T03:27:56.791Z,9.60
2023-04-13T03:30:24.018Z,10.10
2023-04-13T03:32:52.313Z,10.30
2023-04-13T03:35:19.462Z,9.03
2023-04-13T03:37:46.630Z,9.47
2023-04-13T03:40:14.277Z,10.90
2023-04-13T03:42:41.456Z,9.20
2023-04-13T03:45:10.525Z,9.23
2023-04-13T03:47:38.972Z,9.53
2023-04-13T03:50:10.082Z,9.00
2023-04-13T03:52:37.228Z,9.73
2023-04-13T03:55:04.941Z,9.13
2023-04-13T03:57:32.108Z,10.17
2023-04-13T03:59:59.204Z,9.47
2023-04-13T04:02:26.482Z,9.50
2023-04-13T04:04:53.769Z,9.90
2023-04-13T04:07:23.268Z,9.33
2023-04-13T04:10:18.057Z,9.63
2023-04-13T04:12:45.701Z,9.50
2023-04-13T04:15:12.946Z,9.97
2023-04-13T04:17:40.215Z,9.67
2023-04-13T04:20:08.748Z,8.23
2023-04-13T04:22:36.553Z,8.33
2023-04-13T04:25:04.489Z,9.13
2023-04-13T04:27:37.801Z,8.87
2023-04-13T04:30:06.818Z,8.47
2023-04-13T04:32:34.159Z,8.33
2023-04-13T04:35:04.029Z,7.87
2023-04-13T04:37:37.405Z,8.40
2023-04-13T04:40:09.657Z,8.67
2023-04-13T04:42:39.653Z,8.00
2023-04-13T04:45:08.277Z,7.87
2023-04-13T04:47:42.018Z,7.80
2023-04-13T04:50:14.372Z,8.30
2023-04-13T04:52:42.180Z,9.03
2023-04-13T04:55:10.184Z,8.03
2023-04-13T04:57:37.814Z,8.20
2023-04-13T05:00:15.411Z,7.37
2023-04-13T05:02:44.235Z,7.63
2023-04-13T05:05:12.075Z,7.00
2023-04-13T05:07:39.387Z,6.80
2023-04-13T05:10:12.814Z,6.60
2023-04-13T05:12:39.918Z,6.67
2023-04-13T05:15:08.985Z,5.93
2023-04-13T05:17:36.503Z,5.50
2023-04-13T05:20:07.852Z,4.70
2023-04-13T05:22:35.099Z,5.50
2023-04-13T05:25:02.465Z,5.40
2023-04-13T05:27:29.641Z,6.67
2023-04-13T05:29:57.529Z,5.43
2023-04-13T05:32:24.669Z,6.17
2023-04-13T05:34:51.726Z,6.70
2023-04-13T05:37:21.403Z,7.03
2023-04-13T05:39:48.513Z,5.70
2023-04-13T05:42:16.403Z,4.60
2023-04-13T05:44:43.485Z,5.20
2023-04-13T05:47:10.556Z,4.37
2023-04-13T05:49:37.676Z,5.00
2023-04-13T05:52:07.758Z,5.80
2023-04-13T05:54:36.348Z,5.10
2023-04-13T05:57:03.736Z,6.13
2023-04-13T05:59:31.106Z,4.50
2023-04-13T06:02:00.100Z,5.40
2023-04-13T06:04:27.633Z,5.40
2023-04-13T06:06:55.893Z,6.03
2023-04-13T06:09:27.240Z,5.43
2023-04-13T06:11:54.470Z,5.53
2023-04-13T06:14:22.295Z,5.83
2023-04-13T06:16:49.376Z,5.70
2023-04-13T06:19:17.358Z,5.53
2023-04-13T06:21:44.590Z,6.37
2023-04-13T06:24:11.711Z,5.70
2023-04-13T06:26:39.267Z,6.27
2023-04-13T06:29:06.463Z,6.20
2023-04-13T06:31:33.762Z,6.13
2023-04-13T06:34:02.464Z,6.47
2023-04-13T06:36:29.732Z,7.00
2023-04-13T06:38:57.145Z,7.30
2023-04-13T06:41:24.587Z,7.30
2023-04-13T06:43:52.093Z,6.63
2023-04-13T06:46:20.032Z,6.40
2023-04-13T06:48:49.146Z,6.73
2023-04-13T06:51:16.486Z,6.13
2023-04-13T06:53:43.519Z,6.67
2023-04-13T06:56:13.169Z,5.60
2023-04-13T06:58:42.905Z,6.17
2023-04-13T07:01:12.457Z,6.27
2023-04-13T07:03:42.183Z,6.30
2023-04-13T07:06:09.755Z,6.33
2023-04-13T07:08:36.871Z,5.07
2023-04-13T07:11:03.996Z,5.77
2023-04-13T07:13:31.036Z,5.60
2023-04-13T07:15:58.079Z,5.67
2023-04-13T07:18:26.375Z,5.87
2023-04-13T07:20:53.445Z,4.47
2023-04-13T07:23:20.542Z,4.43
2023-04-13T07:25:47.619Z,4.03
2023-04-13T07:28:14.727Z,4.30
2023-04-13T07:30:45.786Z,3.50
2023-04-13T07:33:13.297Z,3.27
2023-04-13T07:35:40.507Z,3.70
2023-04-13T07:38:07.923Z,3.43
2023-04-13T07:40:38.135Z,2.90
2023-04-13T07:43:05.237Z,3.23
2023-04-13T07:45:32.738Z,3.17
2023-04-13T07:47:59.872Z,2.90
2023-04-13T07:50:27.441Z,2.40
2023-04-13T07:52:57.130Z,2.73
2023-04-13T07:55:27.589Z,2.50
2023-04-13T07:57:55.509Z,3.10
2023-04-13T08:00:22.997Z,2.50
2023-04-13T08:02:50.286Z,1.90
2023-04-13T08:05:17.961Z,1.93
2023-04-13T08:07:46.816Z,1.90
2023-04-13T08:10:13.917Z,1.93
2023-04-13T08:12:43.308Z,1.67
2023-04-13T08:15:17.993Z,1.87
2023-04-13T08:17:45.332Z,1.50
2023-04-13T08:20:13.737Z,1.57
2023-04-13T08:22:40.897Z,1.73
2023-04-13T08:25:08.255Z,1.40
2023-04-13T08:27:35.367Z,1.87
2023-04-13T08:30:03.652Z,1.67
2023-04-13T08:32:30.958Z,1.67
2023-04-13T08:34:58.456Z,1.80
2023-04-13T08:37:28.084Z,1.60
2023-04-13T08:39:59.566Z,1.93
2023-04-13T08:42:28.965Z,1.60
2023-04-13T08:45:01.755Z,1.90
2023-04-13T08:47:29.368Z,1.07
2023-04-13T08:50:01.925Z,1.60
2023-04-13T08:52:29.606Z,1.50
2023-04-13T08:55:02.280Z,1.67
2023-04-13T08:57:31.157Z,1.40
2023-04-13T09:00:01.122Z,1.13
2023-04-13T09:02:37.576Z,1.30
2023-04-13T09:05:16.272Z,1.33
2023-04-13T09:07:53.598Z,1.50
2023-04-13T09:10:26.223Z,1.33
2023-04-13T09:12:53.469Z,1.20
2023-04-13T09:15:21.314Z,1.00
2023-04-13T09:17:50.580Z,1.13
2023-04-13T09:20:23.904Z,1.10
2023-04-13T09:22:53.985Z,1.13
2023-04-13T09:25:30.413Z,0.80
2023-04-13T09:27:59.246Z,0.90
2023-04-13T09:30:27.579Z,0.73
2023-04-13T09:33:10.739Z,0.97
2023-04-13T09:35:38.888Z,1.20
2023-04-13T09:38:07.310Z,0.87
2023-04-13T09:40:38.171Z,0.80
2023-04-13T09:47:14.637Z,1.00
2023-04-13T09:49:43.769Z,1.00
2023-04-13T09:52:24.822Z,1.10
2023-04-13T09:54:58.769Z,0.63
2023-04-13T09:57:32.887Z,1.00
2023-04-13T10:00:16.066Z,1.03
2023-04-13T10:02:45.836Z,0.60
2023-04-13T10:05:13.980Z,1.23
2023-04-13T10:07:48.763Z,0.40
2023-04-13T10:10:16.943Z,0.77
2023-04-13T10:12:53.400Z,0.57
2023-04-13T10:16:06.576Z,0.60
2023-04-13T10:19:01.857Z,0.50
2023-04-13T10:21:39.919Z,0.90
2023-04-13T10:24:14.358Z,0.60
2023-04-13T10:26:46.654Z,0.70
2023-04-13T10:29:14.821Z,0.60
2023-04-13T10:31:47.989Z,0.73
2023-04-13T10:34:31.847Z,1.00
2023-04-13T10:37:03.695Z,0.60
2023-04-13T10:39:34.465Z,0.80
2023-04-13T10:42:09.566Z,0.90
2023-04-13T10:44:51.401Z,0.73
2023-04-13T10:47:21.723Z,0.50
2023-04-13T10:49:51.254Z,0.70
2023-04-13T10:52:18.449Z,0.70
2023-04-13T10:54:50.258Z,0.50
2023-04-13T10:57:17.671Z,0.50
2023-04-13T10:59:58.797Z,0.50
2023-04-13T11:02:32.347Z,0.60
2023-04-13T11:05:00.898Z,0.70
2023-04-13T11:07:28.691Z,0.43
2023-04-13T11:12:31.707Z,0.50
2023-04-13T11:15:00.897Z,0.70
2023-04-13T11:17:28.249Z,0.60
2023-04-13T11:20:02.453Z,0.50
2023-04-13T11:22:36.377Z,0.50
2023-04-13T11:25:09.095Z,0.60
2023-04-13T11:27:37.703Z,0.63
2023-04-13T11:30:10.911Z,0.70
2023-04-13T11:32:43.516Z,0.50
2023-04-13T11:35:14.744Z,0.60
2023-04-13T11:37:48.649Z,0.40
2023-04-13T11:40:27.759Z,0.50
2023-04-13T11:42:58.262Z,0.70
2023-04-13T11:45:31.929Z,0.60
2023-04-13T11:47:59.764Z,0.77
2023-04-13T11:50:27.909Z,0.40
2023-04-13T11:52:56.831Z,0.60
2023-04-13T11:55:25.537Z,0.70
2023-04-13T11:57:55.636Z,0.60
2023-04-13T12:00:28.067Z,0.60
2023-04-13T12:05:42.988Z,0.30
2023-04-13T12:08:24.580Z,0.93
2023-04-13T12:14:06.448Z,0.60
2023-04-13T12:17:03.219Z,0.50
2023-04-13T12:19:26.654Z,0.57
2023-04-13T12:21:56.694Z,0.60
2023-04-13T12:24:40.222Z,0.70
2023-04-13T12:29:39.406Z,0.50
2023-04-13T12:32:14.887Z,0.50
2023-04-13T12:34:51.435Z,0.88
2023-04-13T12:37:18.531Z,0.60
2023-04-13T12:39:45.607Z,0.60
2023-04-13T12:42:48.250Z,0.68
2023-04-13T12:45:16.834Z,0.52
2023-04-13T12:47:47.136Z,2.97
2023-04-13T12:50:14.973Z,1.45
2023-04-13T12:52:43.456Z,0.73
2023-04-13T12:55:11.456Z,0.65
2023-04-13T12:57:39.908Z,1.00
2023-04-13T13:00:10.860Z,5.90
2023-04-13T13:02:42.131Z,2.38
2023-04-13T13:05:09.684Z,0.70
2023-04-13T13:07:37.047Z,1.60
2023-04-13T13:10:09.630Z,0.47
2023-04-13T13:12:45.656Z,0.70
2023-04-13T13:15:17.507Z,0.80
2023-04-13T13:17:45.410Z,0.60
2023-04-13T13:20:14.629Z,1.02
2023-04-13T13:22:43.462Z,0.65
2023-04-13T13:25:10.972Z,0.70
2023-04-13T13:28:10.373Z,5.30
2023-04-13T13:30:29.048Z,1.80
2023-04-13T13:32:56.584Z,2.95
2023-04-13T13:35:23.955Z,0.80
2023-04-13T13:37:51.348Z,0.75
2023-04-13T13:40:18.675Z,3.97
2023-04-13T13:42:52.093Z,3.45
2023-04-13T13:45:25.545Z,1.05
2023-04-13T13:47:55.253Z,2.20
2023-04-13T13:50:22.541Z,2.53
2023-04-13T13:53:02.166Z,0.90
2023-04-13T13:55:31.727Z,0.90
2023-04-13T13:57:59.301Z,0.63
2023-04-13T14:00:27.846Z,0.60
2023-04-13T14:02:55.105Z,1.00
2023-04-13T14:05:24.060Z,1.20
2023-04-13T14:07:51.701Z,0.68
2023-04-13T14:10:18.987Z,0.75
2023-04-13T14:12:49.587Z,0.88
2023-04-13T14:15:17.564Z,0.70
2023-04-13T14:17:52.832Z,0.80
2023-04-13T14:20:29.619Z,0.47
2023-04-13T14:22:58.140Z,0.63
2023-04-13T14:25:25.451Z,0.70
2023-04-13T14:27:53.052Z,0.57
2023-04-13T14:30:23.674Z,0.68
2023-04-13T14:32:52.260Z,0.70
2023-04-13T14:35:22.761Z,0.70
2023-04-13T14:37:50.064Z,0.60
2023-04-13T14:40:21.027Z,0.57
2023-04-13T14:42:50.895Z,0.60
2023-04-13T14:45:19.773Z,0.65
2023-04-13T14:47:47.188Z,0.50
2023-04-13T14:50:15.447Z,0.50
2023-04-13T14:52:46.746Z,0.50
2023-04-13T14:55:14.943Z,1.02
2023-04-13T14:57:42.221Z,0.60
2023-04-13T15:00:26.609Z,2.03
2023-04-13T15:02:54.806Z,1.90
2023-04-13T15:05:22.275Z,0.60
2023-04-13T15:07:50.727Z,1.23
2023-04-13T15:10:19.169Z,0.35
2023-04-13T15:12:48.076Z,0.57
2023-04-13T15:15:16.852Z,0.68
2023-04-13T15:17:44.182Z,0.90
2023-04-13T15:20:15.403Z,0.60
2023-04-13T15:22:42.459Z,0.70
2023-04-13T15:25:10.082Z,0.60
2023-04-13T15:27:37.235Z,0.70
2023-04-13T15:30:05.072Z,0.63
2023-04-13T15:32:35.170Z,0.60
2023-04-13T15:35:04.251Z,0.60
2023-04-13T15:37:31.427Z,0.40
2023-04-13T15:39:58.559Z,0.50
2023-04-13T15:42:26.186Z,0.52
2023-04-13T15:44:54.737Z,0.40
2023-04-13T15:47:22.702Z,0.60
2023-04-13T15:49:49.961Z,0.63
2023-04-13T15:52:17.202Z,0.70
2023-04-13T15:54:44.282Z,0.60
2023-04-13T15:57:11.583Z,0.77
2023-04-13T15:59:38.742Z,0.50
2023-04-13T16:02:06.189Z,0.63
2023-04-13T16:04:33.513Z,0.73
2023-04-13T16:07:12.756Z,0.70
2023-04-13T16:09:51.222Z,0.70
2023-04-13T16:12:18.597Z,0.50
2023-04-13T16:14:46.012Z,0.70
2023-04-13T16:17:16.987Z,0.50
2023-04-13T16:19:50.610Z,0.60
2023-04-13T16:22:17.899Z,0.65
2023-04-13T16:24:44.976Z,0.60
2023-04-13T16:27:12.087Z,0.60
2023-04-13T16:29:41.649Z,0.98
2023-04-13T16:32:08.967Z,1.50
2023-04-13T16:34:36.169Z,1.20
2023-04-13T16:37:03.388Z,0.70
2023-04-13T16:39:30.464Z,0.55
2023-04-13T16:41:57.541Z,0.70
2023-04-13T16:44:24.600Z,0.80
2023-04-13T16:46:51.713Z,0.77
2023-04-13T16:49:19.142Z,0.88
2023-04-13T16:51:46.266Z,0.93
2023-04-13T16:54:13.926Z,23.20
2023-04-13T16:56:41.192Z,10.35
2023-04-13T16:59:08.247Z,2.53
2023-04-13T17:01:37.153Z,1.93
2023-04-13T17:04:05.968Z,0.90
2023-04-13T17:06:37.981Z,1.17
2023-04-13T17:09:06.167Z,0.93
2023-04-13T17:11:33.424Z,0.60
2023-04-13T17:14:00.958Z,0.80
2023-04-13T17:16:29.419Z,0.70
2023-04-13T17:18:57.239Z,0.70
2023-04-13T17:21:24.641Z,0.90
2023-04-13T17:23:51.724Z,0.60
2023-04-13T17:26:18.990Z,0.80
2023-04-13T17:28:46.494Z,0.80
2023-04-13T17:31:14.393Z,0.90
2023-04-13T17:33:41.536Z,0.93
2023-04-13T17:36:08.673Z,0.57
2023-04-13T17:38:35.840Z,0.73
2023-04-13T17:41:03.029Z,0.70
2023-04-13T17:43:30.158Z,0.70
2023-04-13T17:45:57.298Z,0.80
2023-04-13T17:48:24.508Z,0.60
2023-04-13T17:50:51.621Z,0.63
2023-04-13T17:53:20.808Z,0.33
2023-04-13T17:55:47.904Z,0.77
2023-04-13T17:58:15.040Z,0.50
2023-04-13T18:00:42.256Z,0.97
2023-04-13T18:03:10.836Z,0.60
2023-04-13T18:05:44.575Z,0.40
2023-04-13T18:08:11.716Z,0.53
2023-04-13T18:10:38.777Z,0.60
2023-04-13T18:13:05.832Z,0.40
2023-04-13T18:15:32.937Z,1.07
2023-04-13T18:18:00.031Z,0.60
2023-04-13T18:20:27.089Z,0.70
2023-04-13T18:22:54.160Z,1.07
2023-04-13T18:25:21.364Z,0.60
2023-04-13T18:27:50.866Z,0.60
2023-04-13T18:30:19.073Z,0.57
2023-04-13T18:32:46.849Z,0.60
2023-04-13T18:35:14.134Z,0.50
2023-04-13T18:37:41.237Z,0.77
2023-04-13T18:40:10.371Z,0.80
2023-04-13T18:42:40.534Z,0.80
2023-04-13T18:45:08.484Z,0.60
2023-04-13T18:47:35.606Z,0.93
2023-04-13T18:50:02.915Z,0.90
2023-04-13T18:52:30.031Z,1.37
2023-04-13T18:54:57.092Z,1.43
2023-04-13T18:57:24.230Z,1.30
2023-04-13T18:59:51.599Z,1.37
2023-04-13T19:02:18.793Z,1.57
2023-04-13T19:04:46.040Z,1.30
2023-04-13T19:07:13.139Z,0.83
2023-04-13T19:09:40.436Z,1.23
2023-04-13T19:12:08.098Z,1.50
2023-04-13T19:14:35.213Z,1.70
2023-04-13T19:17:02.350Z,1.40
2023-04-13T19:19:29.517Z,1.20
2023-04-13T19:21:56.641Z,1.37
2023-04-13T19:24:24.305Z,1.17
2023-04-13T19:26:51.449Z,1.40
2023-04-13T19:29:20.918Z,1.40
2023-04-13T19:31:49.709Z,1.30
2023-04-13T19:34:16.878Z,1.70
2023-04-13T19:36:44.360Z,1.97
2023-04-13T19:39:11.485Z,2.40
2023-04-13T19:41:41.279Z,2.00
2023-04-13T19:44:08.971Z,2.10
2023-04-13T19:46:37.012Z,2.20
2023-04-13T19:49:04.264Z,2.10
2023-04-13T19:51:32.752Z,1.90
2023-04-13T19:54:01.911Z,2.03
2023-04-13T19:56:36.324Z,1.80
2023-04-13T19:59:07.005Z,1.63
2023-04-13T20:01:34.697Z,1.57
2023-04-13T20:04:05.235Z,1.77
2023-04-13T20:06:33.303Z,2.03
2023-04-13T20:09:14.354Z,1.97
2023-04-13T20:11:41.788Z,2.17
2023-04-13T20:14:11.447Z,2.20
2023-04-13T20:16:38.806Z,2.17
2023-04-13T20:19:06.917Z,2.30
2023-04-13T20:21:34.288Z,2.10
2023-04-13T20:24:03.097Z,2.80
2023-04-13T20:26:31.525Z,2.23
2023-04-13T20:29:02.249Z,2.10
2023-04-13T20:31:32.152Z,1.83
2023-04-13T20:33:59.518Z,2.23
2023-04-13T20:36:26.984Z,2.40
2023-04-13T20:39:00.126Z,3.03
2023-04-13T20:41:32.280Z,3.17
2023-04-13T20:44:00.485Z,3.00
2023-04-13T20:46:34.734Z,2.80
2023-04-13T20:49:05.619Z,3.97
2023-04-13T20:51:33.627Z,3.60
2023-04-13T20:54:02.434Z,4.70
2023-04-13T20:56:33.173Z,36.97
2023-04-13T20:59:00.847Z,42.87
2023-04-13T21:01:30.089Z,26.00
2023-04-13T21:03:57.323Z,8.00
2023-04-13T21:06:24.623Z,8.30
2023-04-13T21:08:52.835Z,3.90
2023-04-13T21:11:21.219Z,4.50
2023-04-13T21:13:48.344Z,4.63
2023-04-13T21:16:15.461Z,4.27
2023-04-13T21:18:42.646Z,5.40
2023-04-13T21:21:09.787Z,7.63
2023-04-13T21:23:37.457Z,7.13
2023-04-13T21:26:05.604Z,6.60
2023-04-13T21:28:32.788Z,5.97
2023-04-13T21:31:02.531Z,5.97
2023-04-13T21:33:29.605Z,6.50
2023-04-13T21:35:56.701Z,7.23
2023-04-13T21:38:24.005Z,7.80
2023-04-13T21:40:51.341Z,8.37
2023-04-13T21:43:18.499Z,7.30
2023-04-13T21:45:45.572Z,8.57
2023-04-13T21:48:12.872Z,8.50
2023-04-13T21:50:40.423Z,7.90
2023-04-13T21:53:07.491Z,8.27
2023-04-13T21:55:37.236Z,7.13
2023-04-13T21:58:04.304Z,6.90
2023-04-13T22:00:31.380Z,7.23
2023-04-13T22:02:58.506Z,7.10
2023-04-13T22:05:25.661Z,7.77
2023-04-13T22:07:52.718Z,7.30
2023-04-13T22:10:19.926Z,7.23
2023-04-13T22:12:47.117Z,7.10
2023-04-13T22:15:14.395Z,6.63
2023-04-13T22:17:41.735Z,6.80
2023-04-13T22:20:09.710Z,7.07
2023-04-13T22:22:36.988Z,5.47
2023-04-13T22:25:04.268Z,4.50
2023-04-13T22:27:31.520Z,4.80
2023-04-13T22:29:58.576Z,4.50
2023-04-13T22:32:28.598Z,4.93
2023-04-13T22:34:56.786Z,4.80
2023-04-13T22:37:23.922Z,4.27
2023-04-13T22:39:51.041Z,5.00
2023-04-13T22:42:20.348Z,4.90
2023-04-13T22:44:47.393Z,4.57
2023-04-13T22:47:14.461Z,4.40
2023-04-13T22:49:41.628Z,3.97
2023-04-13T22:52:08.778Z,4.90
2023-04-13T22:54:35.884Z,4.67
2023-04-13T22:57:05.591Z,4.07
2023-04-13T22:59:32.785Z,4.10
2023-04-13T23:02:01.568Z,4.53
2023-04-13T23:04:28.950Z,4.07
2023-04-13T23:06:56.127Z,3.90
2023-04-13T23:09:23.238Z,4.47
2023-04-13T23:11:50.492Z,5.03
2023-04-13T23:14:24.502Z,6.07
2023-04-13T23:16:51.713Z,4.83
2023-04-13T23:19:19.497Z,5.10
2023-04-13T23:21:47.052Z,4.47
2023-04-13T23:24:14.126Z,4.00
2023-04-13T23:26:41.362Z,4.50
2023-04-13T23:29:08.484Z,4.33
2023-04-13T23:31:35.886Z,4.13
2023-04-13T23:34:02.942Z,3.73
2023-04-13T23:36:30.977Z,3.00
2023-04-13T23:38:58.217Z,2.90
2023-04-13T23:41:25.388Z,3.00
2023-04-13T23:43:53.387Z,2.67
2023-04-13T23:46:22.399Z,3.03
2023-04-13T23:48:49.593Z,2.77
2023-04-13T23:51:16.680Z,3.00
2023-04-13T23:53:46.297Z,2.70
2023-04-13T23:56:13.380Z,2.77
2023-04-13T23:58:40.554Z,3.17
